Pagrindinis puslapis
METAR-TAF:

METAR-TAF

Oro uostai :

Anapa, Rusija

platuma: 44-54N, ilguma: 037-19E, Aukštis: 53 m

Dabartinis oras

Ataskaita buvo paskelbta 40 minutes, ne 04:30 UTC
Vėjas 2 kt iš Rytų
Temperatūra 2°C
Drėgmė 100%
Slėgis 1018 hPa
Matomumas: 1000 m
rūkana

METAR: URKA 100430Z 08001MPS 2200 1000SE BR NSC 02/02 Q1018 R04/010065 TEMPO 0200 FG BKN002 RMK QFE759/1013

Laikas: 09:10 (05:10 UTC)

Prognozė

Ataskaita buvo paskelbta 3 valandos ir 15 minutes, ne 01:55 UTC
Prognozė galioja nuo 10 metu 03 UTC su 11 metu 03 UTC
Vėjas 6 kt iš Rytų/Šiaurės Rytų su gūsio iki 16 kt
Matomumas: 1200 m
Su prošvaistėmis ne aukštis 300 ft
rūkana
Laikinai
nuo 10 metu 03 UTC su 10 metu 09 UTC
Matomumas: 0200 m
Su prošvaistėmis ne aukštis 200 ft
rūkas
Nuo 10 metu 0900 UTC
Vėjas 10 kt iš Rytų su gūsio iki 19 kt
Matomumas: 3100 m
Su prošvaistėmis ne aukštis 1100 ft
rūkana

TAF: URKA 100155Z 1003/1103 07003G08MPS 1200 BR BKN003 TEMPO 1003/1009 0200 FG BKN002 FM100900 09005G10MPS 3100 BR BKN011

Orai ataskaitas ir orų prognozės (METAR, TAF).

turimą stotys yra geltonos ir raudonos taškus žemėlapyje.

Perkelti pele per norėdami pamatyti stoties vardą.

Tada spustelėkite, norėdami matyti oro stebėjimo ir prognozės.

Norėdami pakeisti žemėlapį: spustelėkite ant žalios mygtukų su juodo kryžiaus žemyn,; žalią mygtuką su brūkšneliu, jei norite nutolinti; arba žalių rodyklių gretimoms žemėlapius.


METAR-TAF: